createdAt,value
2023-01-29T00:08:30.446Z,-3
2023-01-29T00:18:32.300Z,-3.1
2023-01-29T00:28:34.008Z,-3.2
2023-01-29T00:38:36.364Z,-3.2
2023-01-29T00:58:41.234Z,-3.2
2023-01-29T01:08:42.941Z,-3.2
2023-01-29T01:18:45.563Z,-3.2
2023-01-29T01:28:47.953Z,-3.2
2023-01-29T01:58:53.934Z,-3.1
2023-01-29T02:18:58.773Z,-3
2023-01-29T02:29:00.867Z,-2.9
2023-01-29T03:09:09.190Z,-3.2
2023-01-29T03:29:13.612Z,-3.1
2023-01-29T03:59:20.480Z,-2.9
2023-01-29T04:09:22.921Z,-2.8
2023-01-29T04:19:25.128Z,-2.7
2023-01-29T04:29:29.804Z,-2.6
2023-01-29T04:39:29.906Z,-2.5
2023-01-29T04:49:32.210Z,-2.4
2023-01-29T04:59:33.911Z,-2.3
2023-01-29T05:09:36.111Z,-2.3
2023-01-29T05:19:38.375Z,-2.2
2023-01-29T05:29:40.072Z,-2.1
2023-01-29T05:39:41.835Z,-2
2023-01-29T05:49:44.036Z,-2
2023-01-29T05:59:45.858Z,-2
2023-01-29T06:09:48.255Z,-1.9
2023-01-29T06:19:50.476Z,-1.8
2023-01-29T06:29:52.272Z,-1.8
2023-01-29T06:39:54.403Z,-1.8
2023-01-29T06:49:56.650Z,-1.7
2023-01-29T06:59:58.394Z,-1.7
2023-01-29T07:10:00.132Z,-1.7
2023-01-29T07:20:02.084Z,-1.7
2023-01-29T07:30:03.925Z,-1.6
2023-01-29T07:50:08.438Z,-1.5
2023-01-29T08:00:10.880Z,-1.4
2023-01-29T08:10:12.895Z,-1.3
2023-01-29T08:20:15.293Z,-1.2
2023-01-29T08:30:18.429Z,-1.2
2023-01-29T08:40:19.461Z,-1.1
2023-01-29T08:50:20.928Z,-1
2023-01-29T09:00:22.592Z,-0.9
2023-01-29T09:10:25.318Z,-0.8
2023-01-29T09:20:27.541Z,-0.6
2023-01-29T09:30:29.311Z,-0.5
2023-01-29T09:40:31.649Z,-0.5
2023-01-29T09:50:33.794Z,-0.4
2023-01-29T10:00:36.156Z,-0.3
2023-01-29T10:10:38.766Z,-0.2
2023-01-29T10:20:40.726Z,-0.2
2023-01-29T10:30:42.571Z,-0.1
2023-01-29T10:40:44.528Z,0
2023-01-29T10:50:46.967Z,0
2023-01-29T11:00:49.374Z,0
2023-01-29T11:20:53.624Z,0.2
2023-01-29T11:40:57.890Z,0.4
2023-01-29T12:01:02.233Z,0.5
2023-01-29T12:11:04.487Z,0.6
2023-01-29T12:21:06.301Z,0.7
2023-01-29T12:31:08.774Z,0.8
2023-01-29T12:41:10.889Z,0.7
2023-01-29T12:51:13.444Z,0.7
2023-01-29T13:01:15.985Z,0.7
2023-01-29T13:11:17.716Z,0.7
2023-01-29T13:21:19.515Z,0.7
2023-01-29T13:31:28.506Z,0.8
2023-01-29T13:41:30.560Z,0.8
2023-01-29T13:51:32.241Z,0.9
2023-01-29T14:01:33.982Z,0.8
2023-01-29T14:11:36.300Z,0.9
2023-01-29T14:21:38.809Z,0.9
2023-01-29T14:31:40.753Z,0.8
2023-01-29T14:41:42.584Z,0.8
2023-01-29T14:51:45.118Z,0.8
2023-01-29T15:01:47.560Z,0.8
2023-01-29T15:11:49.697Z,0.8
2023-01-29T15:21:52.255Z,0.8
2023-01-29T15:31:54.461Z,0.8
2023-01-29T15:41:56.565Z,0.9
2023-01-29T15:51:59.270Z,0.9
2023-01-29T16:02:01.011Z,0.9
2023-01-29T16:12:03.078Z,0.9
2023-01-29T16:22:04.945Z,0.9
2023-01-29T16:32:07.167Z,0.9
2023-01-29T16:42:09.398Z,1
2023-01-29T16:52:11.258Z,1
2023-01-29T17:02:13.286Z,1.1
2023-01-29T17:12:15.738Z,1.1
2023-01-29T17:22:17.786Z,1.2
2023-01-29T17:32:20.106Z,1.2
2023-01-29T17:42:21.782Z,1.3
2023-01-29T17:52:24.319Z,1.3
2023-01-29T18:02:29.263Z,1.3
2023-01-29T18:12:29.139Z,1.3
2023-01-29T18:22:31.015Z,1.4
2023-01-29T18:32:32.806Z,1.4
2023-01-29T18:42:35.325Z,1.4
2023-01-29T18:52:37.330Z,1.4
2023-01-29T19:02:39.152Z,1.4
2023-01-29T19:12:41.090Z,1.4
2023-01-29T19:22:42.882Z,1.3
2023-01-29T19:32:45.486Z,1.1
2023-01-29T19:42:47.335Z,1.3
2023-01-29T19:52:51.595Z,1.4
2023-01-29T20:02:52.464Z,1.5
2023-01-29T20:12:54.327Z,1.5
2023-01-29T20:22:56.240Z,1.6
2023-01-29T20:32:58.455Z,1.6
2023-01-29T20:43:00.122Z,1.7
2023-01-29T20:53:02.008Z,1.7
2023-01-29T21:03:04.269Z,1.8
2023-01-29T21:13:06.243Z,1.8
2023-01-29T21:23:08.029Z,1.8
2023-01-29T21:33:10.382Z,1.9
2023-01-29T21:43:12.357Z,1.9
2023-01-29T21:53:14.657Z,2
2023-01-29T22:03:16.650Z,2.1
2023-01-29T22:13:18.725Z,2.1
2023-01-29T22:23:21.368Z,2.2
2023-01-29T22:33:23.700Z,2.2
2023-01-29T22:43:26.030Z,2.2
2023-01-29T23:43:39.497Z,2.5
2023-01-29T23:53:41.681Z,2.5
